Key South — 9HA2267 — position and weather

sailwx.info

Track history (hours):
 
Tides and Currents Weather Stations Pressure Air Temp Water Temp Dewpoint Dewpoint Depression Visibility Wind Speed Wind Dir Waves Ship Positions

Key South

Last reported at 2018-Jun-19 13:23 UTC. Time now 2018-Jun-19 13:55 UTC.
Position N 57°26' E 011°25'.

Length 100 m; draft 5 m.

Type: Tanker. MMSI: 248221000.

Date/timePositionNaut miles runAvg speedWind from/ knotsBaromVisibWave heightAir tempDewpointWater temp
2018-Jun-19 13:23N 57°26' E 011°25'513.8
2018-Jun-19 13:00N 57°30' E 011°18'713.6
2018-Jun-19 12:30N 57°34' E 011°08'112 4.3
2018-Jun-18 10:21N 57°42' E 007°39'513.5
2018-Jun-18 10:00N 57°42' E 007°30'713.6
2018-Jun-18 09:30N 57°43' E 007°17'713.4
2018-Jun-18 09:00N 57°43' E 007°04'713.1
2018-Jun-18 08:29N 57°44' E 006°52'5312.5
2018-Jun-18 04:14N 58°13' E 005°29'1212.8
2018-Jun-18 03:19N 58°22' E 005°13'812.0
2018-Jun-18 02:37N 58°30' E 005°12'112.8
2018-Jun-18 02:30N 58°31' E 005°13'612.6
2018-Jun-18 02:00N 58°38' E 005°14'612.7
2018-Jun-18 01:31N 58°44' E 005°15'612.8
2018-Jun-18 01:00N 58°50' E 005°17'612.9
2018-Jun-18 00:31N 58°57' E 005°18'612.7
2018-Jun-18 00:01N 59°03' E 005°19'612.6
2018-Jun-17 23:30N 59°09' E 005°20'612.8
2018-Jun-17 23:01N 59°16' E 005°20'5 9.3
2018-Jun-17 22:30N 59°20' E 005°18'0 0.0
2018-Jun-17 22:00N 59°20' E 005°18'0 0.0
2018-Jun-17 21:31N 59°20' E 005°18'0 0.0
2018-Jun-17 21:00N 59°20' E 005°18'0 0.0
2018-Jun-17 20:30N 59°20' E 005°18'0 0.0
2018-Jun-17 20:00N 59°20' E 005°18'0 0.0
2018-Jun-17 19:29N 59°20' E 005°18'0 0.0
2018-Jun-17 19:00N 59°20' E 005°18'0 0.0
2018-Jun-17 18:30N 59°20' E 005°18'0 0.0
2018-Jun-17 18:00N 59°20' E 005°18'0 0.0
2018-Jun-17 17:30N 59°20' E 005°18'0 0.0
2018-Jun-17 17:00N 59°20' E 005°18'0 0.0
2018-Jun-17 16:30N 59°20' E 005°18'0 0.0
2018-Jun-17 16:00N 59°20' E 005°18'0 0.0
2018-Jun-17 15:30N 59°20' E 005°18'0 0.0
2018-Jun-17 15:00N 59°20' E 005°18'0 0.0
2018-Jun-17 14:30N 59°20' E 005°18'0 0.0
2018-Jun-17 14:00N 59°20' E 005°18'3 5.7
2018-Jun-17 13:30N 59°18' E 005°20'713.7
2018-Jun-17 13:00N 59°11' E 005°22'612.5
2018-Jun-17 12:30N 59°06' E 005°30'713.3
2018-Jun-17 12:00N 59°02' E 005°39'510.0
2018-Jun-17 11:30N 58°60' E 005°48'3 6.7
2018-Jun-17 11:00N 58°57' E 005°45'0 0.0
2018-Jun-17 10:30N 58°57' E 005°45'0 0.0
2018-Jun-17 10:00N 58°57' E 005°45'0 0.0
2018-Jun-17 09:30N 58°57' E 005°45'0 0.0
2018-Jun-17 09:00N 58°57' E 005°45'0 0.0
2018-Jun-17 08:30N 58°57' E 005°45'0 0.0
2018-Jun-17 08:00N 58°57' E 005°45'0 0.0
2018-Jun-17 07:30N 58°57' E 005°45'0 0.0
2018-Jun-17 07:00N 58°57' E 005°45'0 0.0
2018-Jun-17 06:30N 58°57' E 005°45'0 0.0
2018-Jun-17 06:00N 58°57' E 005°45'0 0.0
2018-Jun-17 05:30N 58°57' E 005°45'0 0.0
2018-Jun-17 05:00N 58°57' E 005°45'0 0.0
2018-Jun-17 04:30N 58°57' E 005°45'0 0.0
2018-Jun-17 04:00N 58°57' E 005°45'0 0.0
2018-Jun-17 03:30N 58°57' E 005°45'0 0.0
2018-Jun-17 03:00N 58°57' E 005°45'2 4.6
2018-Jun-17 02:30N 58°59' E 005°48'4 8.7
2018-Jun-17 02:00N 59°01' E 005°41'611.8
2018-Jun-17 01:30N 59°05' E 005°32'612.6
2018-Jun-17 01:00N 59°09' E 005°22'612.6
2018-Jun-17 00:31N 59°15' E 005°20'712.7
2018-Jun-17 00:00N 59°21' E 005°18'611.5
2018-Jun-16 23:30N 59°26' E 005°12'712.9
2018-Jun-16 23:00N 59°30' E 005°01'612.8
2018-Jun-16 22:30N 59°33' E 004°51'16011.2
2018-Jun-16 08:12N 62°13' E 004°31'211.4
2018-Jun-16 08:00N 62°14' E 004°35'611.6
2018-Jun-16 07:29N 62°17' E 004°46'611.3
2018-Jun-16 07:00N 62°19' E 004°57'510.9
2018-Jun-16 06:30N 62°22' E 005°07'611.1
2018-Jun-16 05:59N 62°24' E 005°18'510.9
2018-Jun-16 05:30N 62°26' E 005°29'510.6
2018-Jun-16 05:00N 62°27' E 005°40'611.7
2018-Jun-16 04:30N 62°27' E 005°53'611.9
2018-Jun-16 04:00N 62°29' E 006°05'612.1
2018-Jun-16 03:30N 62°34' E 006°12'713.1
2018-Jun-16 03:00N 62°38' E 006°23'713.2
2018-Jun-16 02:29N 62°44' E 006°31'713.2
2018-Jun-16 01:59N 62°50' E 006°38'613.1
2018-Jun-16 01:30N 62°55' E 006°46'611.6
2018-Jun-16 01:00N 62°59' E 006°54'510.6
2018-Jun-16 00:30N 63°01' E 007°05'510.9
2018-Jun-16 00:00N 63°03' E 007°16'611.4
2018-Jun-15 23:30N 63°05' E 007°28'611.1
2018-Jun-15 23:00N 63°07' E 007°39'4 8.2
2018-Jun-15 22:30N 63°03' E 007°40'0 0.0
2018-Jun-15 22:00N 63°03' E 007°40'0 0.0
2018-Jun-15 21:30N 63°03' E 007°40'0 0.0
2018-Jun-15 21:00N 63°03' E 007°40'0 0.0
2018-Jun-15 20:29N 63°03' E 007°40'0 0.0
2018-Jun-15 20:00N 63°03' E 007°40'0 0.0
2018-Jun-15 19:30N 63°03' E 007°40'0 0.0
2018-Jun-15 19:00N 63°03' E 007°40'0 0.0
2018-Jun-15 18:30N 63°03' E 007°40'0 0.0
2018-Jun-15 18:00N 63°03' E 007°40'0 0.0
2018-Jun-15 17:30N 63°03' E 007°40'0 0.0
2018-Jun-15 17:00N 63°03' E 007°40'0 0.0
2018-Jun-15 16:30N 63°03' E 007°40'0 0.0
2018-Jun-15 16:00N 63°03' E 007°40'0 0.0
2018-Jun-15 15:30N 63°03' E 007°40'0 0.0
2018-Jun-15 15:00N 63°03' E 007°40'0 0.0
2018-Jun-15 14:30N 63°03' E 007°40'0 0.0
2018-Jun-15 14:00N 63°03' E 007°40'0 0.0
2018-Jun-15 13:30N 63°03' E 007°40'0 0.0
2018-Jun-15 13:00N 63°03' E 007°40'0 0.0
2018-Jun-15 12:30N 63°03' E 007°40'0 0.0
2018-Jun-15 12:00N 63°03' E 007°40'0 0.0
2018-Jun-15 11:30N 63°03' E 007°40'0 0.0
2018-Jun-15 11:00N 63°03' E 007°40'0 0.0
2018-Jun-15 10:30N 63°03' E 007°40'0 0.0
2018-Jun-15 10:00N 63°03' E 007°40'0 0.1
2018-Jun-15 09:30N 63°03' E 007°40'0 0.3
2018-Jun-15 09:00N 63°03' E 007°40'4 7.0
2018-Jun-15 08:30N 63°07' E 007°40'611.3
2018-Jun-15 08:00N 63°05' E 007°29'612.3
2018-Jun-15 07:30N 63°02' E 007°16'612.0
2018-Jun-15 07:00N 63°01' E 007°04'611.4
2018-Jun-15 06:30N 62°60' E 006°51'610.7
2018-Jun-15 05:59N 62°59' E 006°39'3 6.3
2018-Jun-15 05:30N 62°59' E 006°32'3 6.9
2018-Jun-15 05:00N 62°58' E 006°25'3 7.0
2018-Jun-15 04:30N 62°57' E 006°18'4 7.2
2018-Jun-15 04:00N 62°56' E 006°10'4 7.9
2018-Jun-15 03:29N 62°55' E 006°02'4 8.5
2018-Jun-15 03:00N 62°53' E 005°53'4 8.3
2018-Jun-15 02:30N 62°52' E 005°44'5 9.2
2018-Jun-15 02:00N 62°49' E 005°37'510.6
2018-Jun-15 01:30N 62°45' E 005°29'4 8.8
2018-Jun-15 01:00N 62°42' E 005°23'5 9.2
2018-Jun-15 00:30N 62°39' E 005°16'5 9.6
2018-Jun-14 23:59N 62°35' E 005°08'21 9.0
2018-Jun-14 21:41N 62°19' E 004°41'2 9.0
2018-Jun-14 21:30N 62°17' E 004°39'5 9.0
2018-Jun-14 20:59N 62°14' E 004°33'20210.4
2018-Jun-14 01:39N 58°52' E 004°30'211.9
2018-Jun-14 01:28N 58°50' E 004°33'711.8
2018-Jun-14 00:53N 58°45' E 004°43'411.7
2018-Jun-14 00:30N 58°42' E 004°48'611.7
2018-Jun-14 00:00N 58°37' E 004°56'611.7
2018-Jun-13 23:30N 58°33' E 005°04'611.8
2018-Jun-13 23:00N 58°29' E 005°11'611.9
2018-Jun-13 22:30N 58°25' E 005°19'612.3
2018-Jun-13 22:00N 58°20' E 005°28'612.0
2018-Jun-13 21:30N 58°16' E 005°36'612.0
2018-Jun-13 21:00N 58°13' E 005°45'611.9
2018-Jun-13 20:30N 58°09' E 005°54'612.0
2018-Jun-13 20:00N 58°05' E 006°02'612.0
2018-Jun-13 19:30N 58°01' E 006°11'612.0
2018-Jun-13 19:00N 57°57' E 006°20'612.4
2018-Jun-13 18:30N 57°53' E 006°29'712.8
2018-Jun-13 17:59N 57°49' E 006°39'612.1
2018-Jun-13 17:30N 57°48' E 006°50'611.9
2018-Jun-13 17:00N 57°47' E 007°01'611.6
2018-Jun-13 16:30N 57°46' E 007°12'611.3
2018-Jun-13 16:00N 57°46' E 007°22'611.3
2018-Jun-13 15:30N 57°46' E 007°33'511.0
2018-Jun-13 15:00N 57°45' E 007°43'510.4
2018-Jun-13 14:29N 57°45' E 007°53'611.2
2018-Jun-13 13:59N 57°45' E 008°03'8011.6
2018-Jun-13 07:06N 57°49' E 010°33'111.8
2018-Jun-13 06:59N 57°49' E 010°36'611.2
2018-Jun-13 06:29N 57°48' E 010°47'812.1
2018-Jun-13 05:50N 57°43' E 010°57'412.3
2018-Jun-13 05:30N 57°40' E 011°02'612.4
2018-Jun-13 05:00N 57°36' E 011°11'611.8
2018-Jun-13 04:30N 57°32' E 011°19'611.1
2018-Jun-13 04:00N 57°28' E 011°27'611.3
2018-Jun-13 03:30N 57°23' E 011°31'611.8
2018-Jun-13 03:00N 57°17' E 011°33'712.2
2018-Jun-13 02:28N 57°11' E 011°37'7211.6
2018-Jun-12 20:17N 56°06' E 012°34'311.8
2018-Jun-12 20:00N 56°04' E 012°38'611.2
2018-Jun-12 19:30N 55°59' E 012°42'611.4
2018-Jun-12 19:00N 55°53' E 012°44'611.9
2018-Jun-12 18:30N 55°47' E 012°43'611.7
2018-Jun-12 18:00N 55°41' E 012°41'611.3
2018-Jun-12 17:30N 55°36' E 012°42'611.3
2018-Jun-12 17:00N 55°30' E 012°43'612.7
2018-Jun-12 16:30N 55°24' E 012°41'611.2
2018-Jun-12 16:00N 55°18' E 012°43'611.8
2018-Jun-12 15:30N 55°16' E 012°52'611.7
2018-Jun-12 15:00N 55°15' E 013°03'2012.1
2018-Jun-12 13:22N 55°14' E 013°37'712.0
2018-Jun-12 12:49N 55°13' E 013°49'1112.2
2018-Jun-12 11:57N 55°13' E 014°07'611.9
2018-Jun-12 11:26N 55°11' E 014°18'511.7
2018-Jun-12 11:00N 55°09' E 014°25'611.7
2018-Jun-12 10:30N 55°06' E 014°34'4 8.4
2018-Jun-12 10:00N 55°06' E 014°41'0 0.2
2018-Jun-12 09:30N 55°06' E 014°41'0 0.0
2018-Jun-12 09:00N 55°06' E 014°41'0 0.0
2018-Jun-12 08:30N 55°06' E 014°41'0 0.0
2018-Jun-12 08:00N 55°06' E 014°41'0 0.0
2018-Jun-12 07:30N 55°06' E 014°41'0 0.0
2018-Jun-12 07:00N 55°06' E 014°41'0 0.0
2018-Jun-12 06:30N 55°06' E 014°41'2 3.4
2018-Jun-12 06:01N 55°05' E 014°39'5 9.1
2018-Jun-12 05:30N 55°01' E 014°39'5 9.4
2018-Jun-12 05:00N 54°57' E 014°44'510.5
2018-Jun-12 04:30N 54°54' E 014°52'510.5
2018-Jun-12 04:00N 54°53' E 015°01'510.7
2018-Jun-12 03:30N 54°52' E 015°10'510.6
2018-Jun-12 03:00N 54°52' E 015°20'710.5
2018-Jun-12 02:22N 54°51' E 015°31'8811.3
2018-Jun-11 18:35N 54°57' E 018°04'111.0
2018-Jun-11 18:30N 54°58' E 018°06'611.2
2018-Jun-11 18:01N 54°58' E 018°15'611.7
2018-Jun-11 17:29N 54°59' E 018°26'611.7
2018-Jun-11 17:00N 54°59' E 018°35'611.3
2018-Jun-11 16:30N 54°57' E 018°45'510.7
2018-Jun-11 16:00N 54°55' E 018°53'510.8
2018-Jun-11 15:30N 54°53' E 019°02'610.9
2018-Jun-11 15:00N 54°51' E 019°11'511.1
2018-Jun-11 14:30N 54°49' E 019°20'611.4
2018-Jun-11 14:00N 54°47' E 019°29'611.5
2018-Jun-11 13:30N 54°44' E 019°38'611.8
2018-Jun-11 13:00N 54°41' E 019°47'6 9.9
2018-Jun-11 12:25N 54°38' E 019°55'4 8.4
2018-Jun-11 12:00N 54°38' E 020°01'7 0.6
2018-Jun-10 23:58N 54°41' E 020°12'0 0.0
2018-Jun-10 23:30N 54°41' E 020°12'0 0.0
2018-Jun-10 23:00N 54°41' E 020°12'0 0.0
2018-Jun-10 04:39N 54°41' E 020°12'0 0.0
2018-Jun-10 02:38N 54°41' E 020°12'0 0.0
2018-Jun-10 02:30N 54°41' E 020°12'4 5.3
2018-Jun-10 01:42N 54°39' E 020°06'2 9.3
2018-Jun-10 01:30N 54°39' E 020°03'5 9.0
2018-Jun-10 01:00N 54°38' E 019°55'4 7.1
2018-Jun-10 00:30N 54°40' E 019°50'2 3.0
2018-Jun-09 23:59N 54°39' E 019°47'0 0.0
2018-Jun-09 23:30N 54°39' E 019°47'0 0.0
2018-Jun-09 23:00N 54°39' E 019°47'0 0.0
2018-Jun-09 22:30N 54°39' E 019°47'0 0.0
2018-Jun-09 21:59N 54°39' E 019°47'0 0.1
2018-Jun-09 21:30N 54°39' E 019°47'0 0.0
2018-Jun-09 21:00N 54°39' E 019°47'0 0.0
2018-Jun-09 18:23N 54°39' E 019°47'0 0.0
2018-Jun-09 17:53N 54°39' E 019°47'0 0.0
2018-Jun-09 17:30N 54°39' E 019°47'0 0.0
2018-Jun-09 16:58N 54°39' E 019°47'0 0.0
2018-Jun-09 16:30N 54°39' E 019°47'0 0.0
2018-Jun-09 16:00N 54°39' E 019°47'0 0.0
2018-Jun-09 15:00N 54°39' E 019°47'0 0.0
2018-Jun-09 14:30N 54°39' E 019°47'0 0.0
2018-Jun-09 14:00N 54°39' E 019°47'0 0.0
2018-Jun-09 13:30N 54°39' E 019°47'  
Track history (hours):
 
Tides and Currents Weather Stations Pressure Air Temp Water Temp Dewpoint Dewpoint Depression Visibility Wind Speed Wind Dir Waves Ship Positions

Key South

Last reported at 2018-Jun-19 13:23 UTC. Time now 2018-Jun-19 13:55 UTC.
Position N 57°26' E 011°25'.

Length 100 m; draft 5 m.

Type: Tanker. MMSI: 248221000.

Date/timePositionNaut miles runAvg speedWind from/ knotsBaromVisibWave heightAir tempDewpointWater temp
2018-Jun-19 13:23N 57°26' E 011°25'513.8
2018-Jun-19 13:00N 57°30' E 011°18'713.6
2018-Jun-19 12:30N 57°34' E 011°08'112 4.3
2018-Jun-18 10:21N 57°42' E 007°39'513.5
2018-Jun-18 10:00N 57°42' E 007°30'713.6
2018-Jun-18 09:30N 57°43' E 007°17'713.4
2018-Jun-18 09:00N 57°43' E 007°04'713.1
2018-Jun-18 08:29N 57°44' E 006°52'5312.5
2018-Jun-18 04:14N 58°13' E 005°29'1212.8
2018-Jun-18 03:19N 58°22' E 005°13'812.0
2018-Jun-18 02:37N 58°30' E 005°12'112.8
2018-Jun-18 02:30N 58°31' E 005°13'612.6
2018-Jun-18 02:00N 58°38' E 005°14'612.7
2018-Jun-18 01:31N 58°44' E 005°15'612.8
2018-Jun-18 01:00N 58°50' E 005°17'612.9
2018-Jun-18 00:31N 58°57' E 005°18'612.7
2018-Jun-18 00:01N 59°03' E 005°19'612.6
2018-Jun-17 23:30N 59°09' E 005°20'612.8
2018-Jun-17 23:01N 59°16' E 005°20'5 9.3
2018-Jun-17 22:30N 59°20' E 005°18'0 0.0
2018-Jun-17 22:00N 59°20' E 005°18'0 0.0
2018-Jun-17 21:31N 59°20' E 005°18'0 0.0
2018-Jun-17 21:00N 59°20' E 005°18'0 0.0
2018-Jun-17 20:30N 59°20' E 005°18'0 0.0
2018-Jun-17 20:00N 59°20' E 005°18'0 0.0
2018-Jun-17 19:29N 59°20' E 005°18'0 0.0
2018-Jun-17 19:00N 59°20' E 005°18'0 0.0
2018-Jun-17 18:30N 59°20' E 005°18'0 0.0
2018-Jun-17 18:00N 59°20' E 005°18'0 0.0
2018-Jun-17 17:30N 59°20' E 005°18'0 0.0
2018-Jun-17 17:00N 59°20' E 005°18'0 0.0
2018-Jun-17 16:30N 59°20' E 005°18'0 0.0
2018-Jun-17 16:00N 59°20' E 005°18'0 0.0
2018-Jun-17 15:30N 59°20' E 005°18'0 0.0
2018-Jun-17 15:00N 59°20' E 005°18'0 0.0
2018-Jun-17 14:30N 59°20' E 005°18'0 0.0
2018-Jun-17 14:00N 59°20' E 005°18'3 5.7
2018-Jun-17 13:30N 59°18' E 005°20'713.7
2018-Jun-17 13:00N 59°11' E 005°22'612.5
2018-Jun-17 12:30N 59°06' E 005°30'713.3
2018-Jun-17 12:00N 59°02' E 005°39'510.0
2018-Jun-17 11:30N 58°60' E 005°48'3 6.7
2018-Jun-17 11:00N 58°57' E 005°45'0 0.0
2018-Jun-17 10:30N 58°57' E 005°45'0 0.0
2018-Jun-17 10:00N 58°57' E 005°45'0 0.0
2018-Jun-17 09:30N 58°57' E 005°45'0 0.0
2018-Jun-17 09:00N 58°57' E 005°45'0 0.0
2018-Jun-17 08:30N 58°57' E 005°45'0 0.0
2018-Jun-17 08:00N 58°57' E 005°45'0 0.0
2018-Jun-17 07:30N 58°57' E 005°45'0 0.0
2018-Jun-17 07:00N 58°57' E 005°45'0 0.0
2018-Jun-17 06:30N 58°57' E 005°45'0 0.0
2018-Jun-17 06:00N 58°57' E 005°45'0 0.0
2018-Jun-17 05:30N 58°57' E 005°45'0 0.0
2018-Jun-17 05:00N 58°57' E 005°45'0 0.0
2018-Jun-17 04:30N 58°57' E 005°45'0 0.0
2018-Jun-17 04:00N 58°57' E 005°45'0 0.0
2018-Jun-17 03:30N 58°57' E 005°45'0 0.0
2018-Jun-17 03:00N 58°57' E 005°45'2 4.6
2018-Jun-17 02:30N 58°59' E 005°48'4 8.7
2018-Jun-17 02:00N 59°01' E 005°41'611.8
2018-Jun-17 01:30N 59°05' E 005°32'612.6
2018-Jun-17 01:00N 59°09' E 005°22'612.6
2018-Jun-17 00:31N 59°15' E 005°20'712.7
2018-Jun-17 00:00N 59°21' E 005°18'611.5
2018-Jun-16 23:30N 59°26' E 005°12'712.9
2018-Jun-16 23:00N 59°30' E 005°01'612.8
2018-Jun-16 22:30N 59°33' E 004°51'16011.2
2018-Jun-16 08:12N 62°13' E 004°31'211.4
2018-Jun-16 08:00N 62°14' E 004°35'611.6
2018-Jun-16 07:29N 62°17' E 004°46'611.3
2018-Jun-16 07:00N 62°19' E 004°57'510.9
2018-Jun-16 06:30N 62°22' E 005°07'611.1
2018-Jun-16 05:59N 62°24' E 005°18'510.9
2018-Jun-16 05:30N 62°26' E 005°29'510.6
2018-Jun-16 05:00N 62°27' E 005°40'611.7
2018-Jun-16 04:30N 62°27' E 005°53'611.9
2018-Jun-16 04:00N 62°29' E 006°05'612.1
2018-Jun-16 03:30N 62°34' E 006°12'713.1
2018-Jun-16 03:00N 62°38' E 006°23'713.2
2018-Jun-16 02:29N 62°44' E 006°31'713.2
2018-Jun-16 01:59N 62°50' E 006°38'613.1
2018-Jun-16 01:30N 62°55' E 006°46'611.6
2018-Jun-16 01:00N 62°59' E 006°54'510.6
2018-Jun-16 00:30N 63°01' E 007°05'510.9
2018-Jun-16 00:00N 63°03' E 007°16'611.4
2018-Jun-15 23:30N 63°05' E 007°28'611.1
2018-Jun-15 23:00N 63°07' E 007°39'4 8.2
2018-Jun-15 22:30N 63°03' E 007°40'0 0.0
2018-Jun-15 22:00N 63°03' E 007°40'0 0.0
2018-Jun-15 21:30N 63°03' E 007°40'0 0.0
2018-Jun-15 21:00N 63°03' E 007°40'0 0.0
2018-Jun-15 20:29N 63°03' E 007°40'0 0.0
2018-Jun-15 20:00N 63°03' E 007°40'0 0.0
2018-Jun-15 19:30N 63°03' E 007°40'0 0.0
2018-Jun-15 19:00N 63°03' E 007°40'0 0.0
2018-Jun-15 18:30N 63°03' E 007°40'0 0.0
2018-Jun-15 18:00N 63°03' E 007°40'0 0.0
2018-Jun-15 17:30N 63°03' E 007°40'0 0.0
2018-Jun-15 17:00N 63°03' E 007°40'0 0.0
2018-Jun-15 16:30N 63°03' E 007°40'0 0.0
2018-Jun-15 16:00N 63°03' E 007°40'0 0.0
2018-Jun-15 15:30N 63°03' E 007°40'0 0.0
2018-Jun-15 15:00N 63°03' E 007°40'0 0.0
2018-Jun-15 14:30N 63°03' E 007°40'0 0.0
2018-Jun-15 14:00N 63°03' E 007°40'0 0.0
2018-Jun-15 13:30N 63°03' E 007°40'0 0.0
2018-Jun-15 13:00N 63°03' E 007°40'0 0.0
2018-Jun-15 12:30N 63°03' E 007°40'0 0.0
2018-Jun-15 12:00N 63°03' E 007°40'0 0.0
2018-Jun-15 11:30N 63°03' E 007°40'0 0.0
2018-Jun-15 11:00N 63°03' E 007°40'0 0.0
2018-Jun-15 10:30N 63°03' E 007°40'0 0.0
2018-Jun-15 10:00N 63°03' E 007°40'0 0.1
2018-Jun-15 09:30N 63°03' E 007°40'0 0.3
2018-Jun-15 09:00N 63°03' E 007°40'4 7.0
2018-Jun-15 08:30N 63°07' E 007°40'611.3
2018-Jun-15 08:00N 63°05' E 007°29'612.3
2018-Jun-15 07:30N 63°02' E 007°16'612.0
2018-Jun-15 07:00N 63°01' E 007°04'611.4
2018-Jun-15 06:30N 62°60' E 006°51'610.7
2018-Jun-15 05:59N 62°59' E 006°39'3 6.3
2018-Jun-15 05:30N 62°59' E 006°32'3 6.9
2018-Jun-15 05:00N 62°58' E 006°25'3 7.0
2018-Jun-15 04:30N 62°57' E 006°18'4 7.2
2018-Jun-15 04:00N 62°56' E 006°10'4 7.9
2018-Jun-15 03:29N 62°55' E 006°02'4 8.5
2018-Jun-15 03:00N 62°53' E 005°53'4 8.3
2018-Jun-15 02:30N 62°52' E 005°44'5 9.2
2018-Jun-15 02:00N 62°49' E 005°37'510.6
2018-Jun-15 01:30N 62°45' E 005°29'4 8.8
2018-Jun-15 01:00N 62°42' E 005°23'5 9.2
2018-Jun-15 00:30N 62°39' E 005°16'5 9.6
2018-Jun-14 23:59N 62°35' E 005°08'21 9.0
2018-Jun-14 21:41N 62°19' E 004°41'2 9.0
2018-Jun-14 21:30N 62°17' E 004°39'5 9.0
2018-Jun-14 20:59N 62°14' E 004°33'20210.4
2018-Jun-14 01:39N 58°52' E 004°30'211.9
2018-Jun-14 01:28N 58°50' E 004°33'711.8
2018-Jun-14 00:53N 58°45' E 004°43'411.7
2018-Jun-14 00:30N 58°42' E 004°48'611.7
2018-Jun-14 00:00N 58°37' E 004°56'611.7
2018-Jun-13 23:30N 58°33' E 005°04'611.8
2018-Jun-13 23:00N 58°29' E 005°11'611.9
2018-Jun-13 22:30N 58°25' E 005°19'612.3
2018-Jun-13 22:00N 58°20' E 005°28'612.0
2018-Jun-13 21:30N 58°16' E 005°36'612.0
2018-Jun-13 21:00N 58°13' E 005°45'611.9
2018-Jun-13 20:30N 58°09' E 005°54'612.0
2018-Jun-13 20:00N 58°05' E 006°02'612.0
2018-Jun-13 19:30N 58°01' E 006°11'612.0
2018-Jun-13 19:00N 57°57' E 006°20'612.4
2018-Jun-13 18:30N 57°53' E 006°29'712.8
2018-Jun-13 17:59N 57°49' E 006°39'612.1
2018-Jun-13 17:30N 57°48' E 006°50'611.9
2018-Jun-13 17:00N 57°47' E 007°01'611.6
2018-Jun-13 16:30N 57°46' E 007°12'611.3
2018-Jun-13 16:00N 57°46' E 007°22'611.3
2018-Jun-13 15:30N 57°46' E 007°33'511.0
2018-Jun-13 15:00N 57°45' E 007°43'510.4
2018-Jun-13 14:29N 57°45' E 007°53'611.2
2018-Jun-13 13:59N 57°45' E 008°03'8011.6
2018-Jun-13 07:06N 57°49' E 010°33'111.8
2018-Jun-13 06:59N 57°49' E 010°36'611.2
2018-Jun-13 06:29N 57°48' E 010°47'812.1
2018-Jun-13 05:50N 57°43' E 010°57'412.3
2018-Jun-13 05:30N 57°40' E 011°02'612.4
2018-Jun-13 05:00N 57°36' E 011°11'611.8
2018-Jun-13 04:30N 57°32' E 011°19'611.1
2018-Jun-13 04:00N 57°28' E 011°27'611.3
2018-Jun-13 03:30N 57°23' E 011°31'611.8
2018-Jun-13 03:00N 57°17' E 011°33'712.2
2018-Jun-13 02:28N 57°11' E 011°37'7211.6
2018-Jun-12 20:17N 56°06' E 012°34'311.8
2018-Jun-12 20:00N 56°04' E 012°38'611.2
2018-Jun-12 19:30N 55°59' E 012°42'611.4
2018-Jun-12 19:00N 55°53' E 012°44'611.9
2018-Jun-12 18:30N 55°47' E 012°43'611.7
2018-Jun-12 18:00N 55°41' E 012°41'611.3
2018-Jun-12 17:30N 55°36' E 012°42'611.3
2018-Jun-12 17:00N 55°30' E 012°43'612.7
2018-Jun-12 16:30N 55°24' E 012°41'611.2
2018-Jun-12 16:00N 55°18' E 012°43'611.8
2018-Jun-12 15:30N 55°16' E 012°52'611.7
2018-Jun-12 15:00N 55°15' E 013°03'2012.1
2018-Jun-12 13:22N 55°14' E 013°37'712.0
2018-Jun-12 12:49N 55°13' E 013°49'1112.2
2018-Jun-12 11:57N 55°13' E 014°07'611.9
2018-Jun-12 11:26N 55°11' E 014°18'511.7
2018-Jun-12 11:00N 55°09' E 014°25'611.7
2018-Jun-12 10:30N 55°06' E 014°34'4 8.4
2018-Jun-12 10:00N 55°06' E 014°41'0 0.2
2018-Jun-12 09:30N 55°06' E 014°41'0 0.0
2018-Jun-12 09:00N 55°06' E 014°41'0 0.0
2018-Jun-12 08:30N 55°06' E 014°41'0 0.0
2018-Jun-12 08:00N 55°06' E 014°41'0 0.0
2018-Jun-12 07:30N 55°06' E 014°41'0 0.0
2018-Jun-12 07:00N 55°06' E 014°41'0 0.0
2018-Jun-12 06:30N 55°06' E 014°41'2 3.4
2018-Jun-12 06:01N 55°05' E 014°39'5 9.1
2018-Jun-12 05:30N 55°01' E 014°39'5 9.4
2018-Jun-12 05:00N 54°57' E 014°44'510.5
2018-Jun-12 04:30N 54°54' E 014°52'510.5
2018-Jun-12 04:00N 54°53' E 015°01'510.7
2018-Jun-12 03:30N 54°52' E 015°10'510.6
2018-Jun-12 03:00N 54°52' E 015°20'710.5
2018-Jun-12 02:22N 54°51' E 015°31'8811.3
2018-Jun-11 18:35N 54°57' E 018°04'111.0
2018-Jun-11 18:30N 54°58' E 018°06'611.2
2018-Jun-11 18:01N 54°58' E 018°15'611.7
2018-Jun-11 17:29N 54°59' E 018°26'611.7
2018-Jun-11 17:00N 54°59' E 018°35'611.3
2018-Jun-11 16:30N 54°57' E 018°45'510.7
2018-Jun-11 16:00N 54°55' E 018°53'510.8
2018-Jun-11 15:30N 54°53' E 019°02'610.9
2018-Jun-11 15:00N 54°51' E 019°11'511.1
2018-Jun-11 14:30N 54°49' E 019°20'611.4
2018-Jun-11 14:00N 54°47' E 019°29'611.5
2018-Jun-11 13:30N 54°44' E 019°38'611.8
2018-Jun-11 13:00N 54°41' E 019°47'6 9.9
2018-Jun-11 12:25N 54°38' E 019°55'4 8.4
2018-Jun-11 12:00N 54°38' E 020°01'7 0.6
2018-Jun-10 23:58N 54°41' E 020°12'0 0.0
2018-Jun-10 23:30N 54°41' E 020°12'0 0.0
2018-Jun-10 23:00N 54°41' E 020°12'0 0.0
2018-Jun-10 04:39N 54°41' E 020°12'0 0.0
2018-Jun-10 02:38N 54°41' E 020°12'0 0.0
2018-Jun-10 02:30N 54°41' E 020°12'4 5.3
2018-Jun-10 01:42N 54°39' E 020°06'2 9.3
2018-Jun-10 01:30N 54°39' E 020°03'5 9.0
2018-Jun-10 01:00N 54°38' E 019°55'4 7.1
2018-Jun-10 00:30N 54°40' E 019°50'2 3.0
2018-Jun-09 23:59N 54°39' E 019°47'0 0.0
2018-Jun-09 23:30N 54°39' E 019°47'0 0.0
2018-Jun-09 23:00N 54°39' E 019°47'0 0.0
2018-Jun-09 22:30N 54°39' E 019°47'0 0.0
2018-Jun-09 21:59N 54°39' E 019°47'0 0.1
2018-Jun-09 21:30N 54°39' E 019°47'0 0.0
2018-Jun-09 21:00N 54°39' E 019°47'0 0.0
2018-Jun-09 18:23N 54°39' E 019°47'0 0.0
2018-Jun-09 17:53N 54°39' E 019°47'0 0.0
2018-Jun-09 17:30N 54°39' E 019°47'0 0.0
2018-Jun-09 16:58N 54°39' E 019°47'0 0.0
2018-Jun-09 16:30N 54°39' E 019°47'0 0.0
2018-Jun-09 16:00N 54°39' E 019°47'0 0.0
2018-Jun-09 15:00N 54°39' E 019°47'0 0.0
2018-Jun-09 14:30N 54°39' E 019°47'0 0.0
2018-Jun-09 14:00N 54°39' E 019°47'0 0.0
2018-Jun-09 13:30N 54°39' E 019°47'  

Dump ship's entire track history